Time;durP1;ratioP1;P1;durP2;ratioP2;P2;SDS_P1;SDS_P2;PMS_P1;PMS_P2;Temp;Humidity;BMP_temperature;BMP_pressure;BME280_temperature;BME280_humidity;BME280_pressure;Samples;Min_cycle;Max_cycle;Signal;HPM_P1;HPM_P2
2022/10/20 00:00:03;;;;;;;;;;;20.30;70.40;;;;;;5059634;28;1281;-68
2022/10/20 00:02:28;;;;;;;;;;;20.30;70.40;;;;;;5057179;28;1077;-68
2022/10/20 00:04:54;;;;;;;;;;;20.30;70.40;;;;;;5056644;28;1898;-68
2022/10/20 00:07:19;;;;;;;;;;;20.30;70.40;;;;;;5058653;28;1294;-67
2022/10/20 00:09:44;;;;;;;;;;;20.30;70.40;;;;;;5067858;28;1166;-68
2022/10/20 00:12:10;;;;;;;;;;;20.30;70.40;;;;;;5058219;28;1022;-69
2022/10/20 00:14:35;;;;;;;;;;;20.30;70.40;;;;;;5056740;28;1381;-68
2022/10/20 00:17:01;;;;;;;;;;;20.30;70.40;;;;;;5056514;28;1552;-67
2022/10/20 00:19:27;;;;;;;;;;;20.30;70.40;;;;;;5056738;28;1038;-68
2022/10/20 00:21:52;;;;;;;;;;;20.30;70.40;;;;;;5058385;28;923;-68
2022/10/20 00:24:20;;;;;;;;;;;20.30;70.40;;;;;;5057107;28;1959;-68
2022/10/20 00:26:45;;;;;;;;;;;20.30;70.50;;;;;;5060512;28;1252;-69
2022/10/20 00:29:11;;;;;;;;;;;20.30;70.50;;;;;;5056096;28;850;-69
2022/10/20 00:31:36;;;;;;;;;;;20.30;70.50;;;;;;5061270;28;1459;-68
2022/10/20 00:34:02;;;;;;;;;;;20.30;70.50;;;;;;5061702;28;891;-68
2022/10/20 00:36:27;;;;;;;;;;;20.30;70.50;;;;;;5058739;28;1218;-68
2022/10/20 00:38:59;;;;;;;;;;;20.30;70.50;;;;;;5061223;28;1014;-69
2022/10/20 00:41:25;;;;;;;;;;;20.20;70.50;;;;;;5047769;28;1719;-67
2022/10/20 00:43:57;;;;;;;;;;;20.30;70.50;;;;;;5061251;28;899;-69
2022/10/20 00:46:23;;;;;;;;;;;20.30;70.50;;;;;;5058896;28;1906;-68
2022/10/20 00:48:49;;;;;;;;;;;20.20;70.40;;;;;;5061768;28;874;-69
2022/10/20 00:51:15;;;;;;;;;;;20.30;70.60;;;;;;5062017;28;1049;-69
2022/10/20 00:53:40;;;;;;;;;;;20.30;70.60;;;;;;5060392;28;910;-68
2022/10/20 00:56:06;;;;;;;;;;;20.20;70.50;;;;;;5061733;28;1249;-67
2022/10/20 00:58:31;;;;;;;;;;;20.30;70.60;;;;;;5062751;28;821;-67
2022/10/20 01:00:57;;;;;;;;;;;20.20;70.50;;;;;;5060776;28;1617;-67
2022/10/20 01:03:23;;;;;;;;;;;20.20;70.50;;;;;;5061729;28;938;-67
2022/10/20 01:05:48;;;;;;;;;;;20.20;70.50;;;;;;5060553;28;1958;-66
2022/10/20 01:08:14;;;;;;;;;;;20.20;70.50;;;;;;5058984;28;820;-67
2022/10/20 01:10:41;;;;;;;;;;;20.30;70.60;;;;;;5059621;28;791;-69
2022/10/20 01:13:13;;;;;;;;;;;20.20;70.50;;;;;;5060204;28;942;-69
2022/10/20 01:15:47;;;;;;;;;;;20.20;70.50;;;;;;5061915;28;1368;-69
2022/10/20 01:18:34;;;;;;;;;;;20.20;70.60;;;;;;5063594;28;1294;-69
2022/10/20 01:21:04;;;;;;;;;;;20.30;70.60;;;;;;5060655;28;1053;-69
2022/10/20 01:23:53;;;;;;;;;;;20.30;70.60;;;;;;5058165;28;858;-69
2022/10/20 01:26:18;;;;;;;;;;;20.20;70.50;;;;;;5062208;28;1953;-67
2022/10/20 01:29:03;;;;;;;;;;;20.20;70.60;;;;;;5061863;28;792;-69
2022/10/20 01:31:29;;;;;;;;;;;20.20;70.60;;;;;;5063067;28;1528;-70
2022/10/20 01:34:02;;;;;;;;;;;20.20;70.60;;;;;;5063105;28;863;-70
2022/10/20 01:36:30;;;;;;;;;;;20.20;70.60;;;;;;5062937;28;1234;-70
2022/10/20 01:39:00;;;;;;;;;;;20.20;70.60;;;;;;5068083;28;902;-70
2022/10/20 01:41:32;;;;;;;;;;;20.20;70.60;;;;;;5061426;28;898;-69
2022/10/20 01:43:59;;;;;;;;;;;20.20;70.60;;;;;;5056588;28;887;-69
2022/10/20 01:46:24;;;;;;;;;;;20.20;70.60;;;;;;5056217;28;1898;-70
2022/10/20 01:48:50;;;;;;;;;;;20.20;70.60;;;;;;5044029;28;878;-69
2022/10/20 01:51:15;;;;;;;;;;;20.20;70.60;;;;;;5058534;28;911;-70
2022/10/20 01:53:41;;;;;;;;;;;20.20;70.70;;;;;;5058249;28;910;-69
2022/10/20 01:56:09;;;;;;;;;;;20.20;70.60;;;;;;5059197;28;1243;-70
2022/10/20 01:58:38;;;;;;;;;;;20.20;70.60;;;;;;5059429;28;1284;-69
2022/10/20 02:01:29;;;;;;;;;;;20.20;70.60;;;;;;5059946;28;1310;-68
2022/10/20 02:03:55;;;;;;;;;;;20.20;70.70;;;;;;5055792;28;977;-68
2022/10/20 02:06:28;;;;;;;;;;;20.20;70.60;;;;;;5056327;28;1965;-68
2022/10/20 02:09:01;;;;;;;;;;;20.20;70.60;;;;;;5056541;28;921;-68
2022/10/20 02:11:26;;;;;;;;;;;20.20;70.60;;;;;;5057169;28;870;-69
2022/10/20 02:13:52;;;;;;;;;;;20.20;70.70;;;;;;5059618;28;1036;-69
2022/10/20 02:16:23;;;;;;;;;;;20.20;70.60;;;;;;5061471;28;1185;-69
2022/10/20 02:18:48;;;;;;;;;;;20.20;70.70;;;;;;5062735;28;1302;-69
2022/10/20 02:21:14;;;;;;;;;;;20.20;70.70;;;;;;5061425;28;792;-69
2022/10/20 02:23:41;;;;;;;;;;;20.20;70.70;;;;;;5058826;28;819;-70
2022/10/20 02:26:06;;;;;;;;;;;20.20;70.70;;;;;;5058034;28;1898;-69
2022/10/20 02:28:32;;;;;;;;;;;20.20;70.70;;;;;;5058975;28;922;-70
2022/10/20 02:30:58;;;;;;;;;;;20.20;70.70;;;;;;5061015;28;858;-69
2022/10/20 02:33:23;;;;;;;;;;;20.20;70.70;;;;;;5061236;28;1571;-68
2022/10/20 02:35:50;;;;;;;;;;;20.20;70.70;;;;;;5056998;28;1372;-70
2022/10/20 02:38:15;;;;;;;;;;;20.20;70.70;;;;;;5064595;28;1520;-70
2022/10/20 02:40:41;;;;;;;;;;;20.20;70.70;;;;;;5059724;28;1399;-70
2022/10/20 02:43:06;;;;;;;;;;;20.20;70.70;;;;;;5061782;28;1387;-70
2022/10/20 02:45:31;;;;;;;;;;;20.20;70.70;;;;;;5060354;28;1922;-69
2022/10/20 02:47:57;;;;;;;;;;;20.20;70.70;;;;;;5057997;28;2118;-68
2022/10/20 02:50:23;;;;;;;;;;;20.20;70.70;;;;;;5059790;28;1836;-68
2022/10/20 02:52:48;;;;;;;;;;;20.20;70.70;;;;;;5060937;28;1382;-68
2022/10/20 02:55:13;;;;;;;;;;;20.20;70.70;;;;;;5056722;28;876;-69
2022/10/20 02:57:39;;;;;;;;;;;20.20;70.70;;;;;;5058401;28;1284;-69
2022/10/20 03:00:05;;;;;;;;;;;20.20;70.70;;;;;;5061047;28;1054;-69
2022/10/20 03:02:30;;;;;;;;;;;20.20;70.70;;;;;;5059244;28;1144;-69
2022/10/20 03:04:56;;;;;;;;;;;20.20;70.70;;;;;;5059185;28;1886;-69
2022/10/20 03:07:21;;;;;;;;;;;20.20;70.70;;;;;;5058137;28;1272;-69
2022/10/20 03:09:47;;;;;;;;;;;20.20;70.80;;;;;;5058005;28;725;-68
2022/10/20 03:12:13;;;;;;;;;;;20.20;70.70;;;;;;5055284;28;868;-68
2022/10/20 03:14:39;;;;;;;;;;;20.20;70.70;;;;;;5055619;28;1077;-68
2022/10/20 03:17:04;;;;;;;;;;;20.20;70.70;;;;;;5057028;28;1346;-68
2022/10/20 03:19:29;;;;;;;;;;;20.20;70.70;;;;;;5060419;28;1269;-68
2022/10/20 03:21:55;;;;;;;;;;;20.20;70.70;;;;;;5060065;28;1236;-68
2022/10/20 03:24:20;;;;;;;;;;;20.20;70.70;;;;;;5059544;28;2001;-68
2022/10/20 03:26:46;;;;;;;;;;;20.20;70.70;;;;;;5059318;28;1374;-68
2022/10/20 03:29:11;;;;;;;;;;;20.20;70.70;;;;;;5058921;28;1186;-69
2022/10/20 03:31:36;;;;;;;;;;;20.20;70.70;;;;;;5056962;28;1383;-69
2022/10/20 03:34:02;;;;;;;;;;;20.20;70.70;;;;;;5057461;28;839;-70
2022/10/20 03:36:27;;;;;;;;;;;20.20;70.80;;;;;;5061041;28;1345;-68
2022/10/20 03:38:53;;;;;;;;;;;20.20;70.70;;;;;;5055975;28;809;-69
2022/10/20 03:41:18;;;;;;;;;;;20.20;70.70;;;;;;5058067;28;836;-69
2022/10/20 03:43:44;;;;;;;;;;;20.20;70.70;;;;;;5057117;28;946;-69
2022/10/20 03:46:09;;;;;;;;;;;20.20;70.80;;;;;;5056827;28;1910;-69
2022/10/20 03:48:35;;;;;;;;;;;20.20;70.80;;;;;;5059512;28;1070;-69
2022/10/20 03:51:01;;;;;;;;;;;20.20;70.70;;;;;;5059574;28;829;-69
2022/10/20 03:53:26;;;;;;;;;;;20.20;70.70;;;;;;5059434;28;883;-67
2022/10/20 03:55:52;;;;;;;;;;;20.20;70.80;;;;;;5054722;28;1749;-69
2022/10/20 03:58:18;;;;;;;;;;;20.20;70.70;;;;;;5056668;28;780;-69
2022/10/20 04:00:43;;;;;;;;;;;20.20;70.70;;;;;;5059928;28;858;-68
2022/10/20 04:03:09;;;;;;;;;;;20.20;70.80;;;;;;5056551;28;1344;-69
2022/10/20 04:05:34;;;;;;;;;;;20.20;70.70;;;;;;5056436;28;1902;-69
2022/10/20 04:08:00;;;;;;;;;;;20.20;70.70;;;;;;5062801;28;923;-69
2022/10/20 04:10:25;;;;;;;;;;;20.20;70.80;;;;;;5064613;28;1069;-69
2022/10/20 04:12:51;;;;;;;;;;;20.20;70.70;;;;;;5059295;28;1026;-68
2022/10/20 04:15:19;;;;;;;;;;;20.20;70.70;;;;;;5062995;28;830;-69
2022/10/20 04:17:44;;;;;;;;;;;20.20;70.80;;;;;;5062763;28;1338;-69
2022/10/20 04:20:10;;;;;;;;;;;20.20;70.70;;;;;;5058614;28;1009;-69
2022/10/20 04:22:36;;;;;;;;;;;20.20;70.70;;;;;;5062139;28;1073;-69
2022/10/20 04:25:01;;;;;;;;;;;20.20;70.70;;;;;;5058138;28;1897;-69
2022/10/20 04:27:27;;;;;;;;;;;20.20;70.70;;;;;;5060113;28;1357;-69
2022/10/20 04:29:52;;;;;;;;;;;20.20;70.70;;;;;;5060304;28;1010;-69
2022/10/20 04:32:18;;;;;;;;;;;20.20;70.70;;;;;;5063412;28;1491;-69
2022/10/20 04:34:43;;;;;;;;;;;20.20;70.80;;;;;;5060221;28;954;-69
2022/10/20 04:37:09;;;;;;;;;;;20.20;70.70;;;;;;5062872;28;1319;-69
2022/10/20 04:39:34;;;;;;;;;;;20.20;70.70;;;;;;5061628;28;776;-69
2022/10/20 04:42:00;;;;;;;;;;;20.30;70.70;;;;;;5063163;28;818;-69
2022/10/20 04:44:25;;;;;;;;;;;20.30;70.70;;;;;;5060932;28;1902;-69
2022/10/20 04:46:52;;;;;;;;;;;20.30;70.70;;;;;;5060147;28;1278;-69
2022/10/20 04:49:17;;;;;;;;;;;20.30;70.60;;;;;;5061093;28;1045;-69
2022/10/20 04:51:43;;;;;;;;;;;20.30;70.60;;;;;;5061073;28;1112;-69
2022/10/20 04:54:08;;;;;;;;;;;20.30;70.50;;;;;;5059741;28;945;-69
2022/10/20 04:56:34;;;;;;;;;;;20.30;70.40;;;;;;5059211;28;1258;-69
2022/10/20 04:58:59;;;;;;;;;;;20.30;70.40;;;;;;5062120;28;888;-69
2022/10/20 05:01:26;;;;;;;;;;;20.40;70.40;;;;;;5062803;28;916;-69
2022/10/20 05:03:51;;;;;;;;;;;20.30;70.30;;;;;;5059743;28;1018;-69
2022/10/20 05:06:17;;;;;;;;;;;20.40;70.30;;;;;;5061345;28;1938;-69
2022/10/20 05:08:45;;;;;;;;;;;20.40;70.20;;;;;;5061981;28;910;-69
2022/10/20 05:11:10;;;;;;;;;;;20.40;70.20;;;;;;5062579;28;878;-69
2022/10/20 05:13:36;;;;;;;;;;;20.40;70.10;;;;;;5057989;28;950;-69
2022/10/20 05:16:02;;;;;;;;;;;20.40;70.00;;;;;;5056286;28;1269;-69
2022/10/20 05:18:27;;;;;;;;;;;20.40;70.70;;;;;;5059420;28;1280;-68
2022/10/20 05:20:53;;;;;;;;;;;20.50;70.00;;;;;;5060223;28;915;-69
2022/10/20 05:23:18;;;;;;;;;;;20.50;70.00;;;;;;5064260;28;939;-69
2022/10/20 05:25:43;;;;;;;;;;;20.50;69.90;;;;;;5058359;28;1906;-69
2022/10/20 05:28:09;;;;;;;;;;;20.50;69.90;;;;;;5059541;28;868;-69
2022/10/20 05:30:34;;;;;;;;;;;20.50;69.90;;;;;;5060621;28;1277;-68
2022/10/20 05:33:00;;;;;;;;;;;20.50;69.80;;;;;;5058950;28;1423;-69
2022/10/20 05:35:26;;;;;;;;;;;20.50;69.80;;;;;;5056647;28;1330;-69
2022/10/20 05:37:51;;;;;;;;;;;20.50;69.80;;;;;;5059143;28;1057;-69
2022/10/20 05:40:17;;;;;;;;;;;20.50;69.70;;;;;;5060612;28;955;-69
2022/10/20 05:42:42;;;;;;;;;;;20.50;69.70;;;;;;5061952;28;911;-69
2022/10/20 05:45:08;;;;;;;;;;;20.50;69.70;;;;;;5059788;28;1995;-69
2022/10/20 05:47:33;;;;;;;;;;;20.50;69.60;;;;;;5058808;28;1346;-68
2022/10/20 05:49:59;;;;;;;;;;;20.50;69.60;;;;;;5064195;28;909;-69
2022/10/20 05:52:24;;;;;;;;;;;20.60;69.60;;;;;;5060119;28;827;-69
2022/10/20 05:54:50;;;;;;;;;;;20.50;69.50;;;;;;5056804;28;898;-69
2022/10/20 05:57:15;;;;;;;;;;;20.60;69.60;;;;;;5062559;28;1231;-69
2022/10/20 05:59:40;;;;;;;;;;;20.50;69.50;;;;;;5060863;28;853;-69
2022/10/20 06:02:07;;;;;;;;;;;20.60;69.50;;;;;;5057755;28;821;-69
2022/10/20 06:04:33;;;;;;;;;;;20.60;69.50;;;;;;5058599;28;1978;-69
2022/10/20 06:06:58;;;;;;;;;;;20.60;69.50;;;;;;5058685;28;1350;-69
2022/10/20 06:09:23;;;;;;;;;;;20.60;69.50;;;;;;5060456;28;1022;-69
2022/10/20 06:11:49;;;;;;;;;;;20.60;69.50;;;;;;5059949;28;1052;-69
2022/10/20 06:14:16;;;;;;;;;;;20.60;69.40;;;;;;5056497;28;1356;-69
2022/10/20 06:16:41;;;;;;;;;;;20.60;69.40;;;;;;5055321;28;1324;-69
2022/10/20 06:19:07;;;;;;;;;;;20.60;69.40;;;;;;5061027;28;975;-69
2022/10/20 06:21:32;;;;;;;;;;;20.60;69.40;;;;;;5059760;28;852;-69
2022/10/20 06:23:58;;;;;;;;;;;20.60;69.40;;;;;;5060257;28;936;-69
2022/10/20 06:26:24;;;;;;;;;;;20.60;69.40;;;;;;5056441;28;1914;-69
2022/10/20 06:28:50;;;;;;;;;;;20.60;69.40;;;;;;5058392;28;901;-69
2022/10/20 06:31:17;;;;;;;;;;;20.60;69.30;;;;;;5061118;28;1115;-69
2022/10/20 06:33:42;;;;;;;;;;;20.60;69.30;;;;;;5059005;28;1193;-69
2022/10/20 06:36:08;;;;;;;;;;;20.60;69.30;;;;;;5061220;28;1290;-69
2022/10/20 06:38:33;;;;;;;;;;;20.60;69.30;;;;;;5059632;28;927;-69
2022/10/20 06:41:02;;;;;;;;;;;20.60;69.20;;;;;;5059220;28;1069;-69
2022/10/20 06:43:27;;;;;;;;;;;20.60;69.30;;;;;;5059317;28;875;-69
2022/10/20 06:45:54;;;;;;;;;;;20.60;69.20;;;;;;5061547;28;1922;-69
2022/10/20 06:48:19;;;;;;;;;;;20.60;69.30;;;;;;5059371;28;836;-69
2022/10/20 06:50:45;;;;;;;;;;;20.60;69.20;;;;;;5059382;28;928;-69
2022/10/20 06:53:11;;;;;;;;;;;20.60;69.20;;;;;;5058911;28;875;-69
2022/10/20 06:55:36;;;;;;;;;;;20.60;69.20;;;;;;5055599;28;1225;-69
2022/10/20 06:58:02;;;;;;;;;;;20.60;69.30;;;;;;5056023;28;907;-69
2022/10/20 07:00:27;;;;;;;;;;;20.60;69.20;;;;;;5060891;28;938;-69
2022/10/20 07:02:52;;;;;;;;;;;20.60;70.00;;;;;;5058348;28;958;-69
2022/10/20 07:05:18;;;;;;;;;;;20.60;69.20;;;;;;5053347;28;1958;-69
2022/10/20 07:07:44;;;;;;;;;;;20.60;69.20;;;;;;5056797;28;1325;-69
2022/10/20 07:10:09;;;;;;;;;;;20.60;69.20;;;;;;5057387;28;1014;-69
2022/10/20 07:12:35;;;;;;;;;;;20.60;69.30;;;;;;5058500;28;1030;-69
2022/10/20 07:15:00;;;;;;;;;;;20.60;69.30;;;;;;5055994;28;1006;-69
2022/10/20 07:17:25;;;;;;;;;;;20.60;69.20;;;;;;5058132;28;1289;-68
2022/10/20 07:19:51;;;;;;;;;;;20.60;69.20;;;;;;5059792;28;845;-69
2022/10/20 07:22:16;;;;;;;;;;;20.60;69.10;;;;;;5055670;28;850;-69
2022/10/20 07:24:42;;;;;;;;;;;20.70;69.20;;;;;;5060259;28;1910;-69
2022/10/20 07:27:07;;;;;;;;;;;20.60;69.10;;;;;;5063168;28;1233;-69
2022/10/20 07:29:33;;;;;;;;;;;20.60;69.10;;;;;;5058773;28;959;-69
2022/10/20 07:31:58;;;;;;;;;;;20.70;69.10;;;;;;5055820;28;1364;-69
2022/10/20 07:34:23;;;;;;;;;;;20.60;69.00;;;;;;5059825;28;808;-68
2022/10/20 07:36:49;;;;;;;;;;;20.60;69.00;;;;;;5058336;28;1273;-68
2022/10/20 07:39:15;;;;;;;;;;;20.70;69.10;;;;;;5056931;28;877;-69
2022/10/20 07:41:42;;;;;;;;;;;20.70;69.10;;;;;;5056230;28;791;-69
2022/10/20 07:44:08;;;;;;;;;;;20.70;69.10;;;;;;5059743;28;847;-69
2022/10/20 07:46:34;;;;;;;;;;;20.70;69.00;;;;;;5056482;28;1902;-69
2022/10/20 07:49:00;;;;;;;;;;;20.70;69.10;;;;;;5056611;28;865;-69
2022/10/20 07:51:30;;;;;;;;;;;20.70;69.00;;;;;;5058060;28;910;-69
2022/10/20 07:53:55;;;;;;;;;;;20.70;69.00;;;;;;5062050;28;886;-69
2022/10/20 07:56:21;;;;;;;;;;;20.70;69.00;;;;;;5055388;28;1270;-69
2022/10/20 07:58:46;;;;;;;;;;;20.70;68.90;;;;;;5058428;28;876;-69
2022/10/20 08:01:12;;;;;;;;;;;20.70;68.90;;;;;;5059608;28;1293;-69
2022/10/20 08:03:37;;;;;;;;;;;20.70;68.90;;;;;;5053968;28;930;-69
2022/10/20 08:06:03;;;;;;;;;;;20.70;68.80;;;;;;5057863;28;1898;-69
2022/10/20 08:08:28;;;;;;;;;;;20.70;68.80;;;;;;5057980;28;949;-69
2022/10/20 08:10:54;;;;;;;;;;;20.70;68.80;;;;;;5056799;28;1517;-69
2022/10/20 08:13:20;;;;;;;;;;;20.70;68.80;;;;;;5057423;28;1130;-69
2022/10/20 08:15:45;;;;;;;;;;;20.70;68.80;;;;;;5057761;28;1216;-68
2022/10/20 08:18:11;;;;;;;;;;;20.80;68.80;;;;;;5057803;28;1299;-69
2022/10/20 08:20:36;;;;;;;;;;;20.70;68.80;;;;;;5057234;28;871;-69
2022/10/20 08:23:01;;;;;;;;;;;20.80;68.80;;;;;;5057671;28;846;-69
2022/10/20 08:25:27;;;;;;;;;;;20.70;68.70;;;;;;5060458;28;1906;-70
2022/10/20 08:27:52;;;;;;;;;;;20.80;68.80;;;;;;5056470;28;939;-69
2022/10/20 08:30:18;;;;;;;;;;;20.70;68.80;;;;;;5058977;28;1191;-68
2022/10/20 08:32:43;;;;;;;;;;;20.70;68.80;;;;;;5057970;28;1373;-69
2022/10/20 08:35:08;;;;;;;;;;;20.70;68.80;;;;;;5056142;28;867;-69
2022/10/20 08:37:35;;;;;;;;;;;20.70;68.80;;;;;;5056389;28;1259;-70
2022/10/20 08:40:01;;;;;;;;;;;20.70;68.80;;;;;;5057854;28;2236;-70
2022/10/20 08:42:26;;;;;;;;;;;20.70;68.80;;;;;;5058725;28;1219;-69
2022/10/20 08:44:52;;;;;;;;;;;20.70;68.80;;;;;;5039486;28;4237;-70
2022/10/20 08:47:22;;;;;;;;;;;20.70;68.90;;;;;;5056665;28;4315;-71
2022/10/20 08:49:47;;;;;;;;;;;20.70;68.90;;;;;;5058949;28;843;-70
2022/10/20 08:52:16;;;;;;;;;;;20.70;68.90;;;;;;5057035;28;1032;-71
2022/10/20 08:54:42;;;;;;;;;;;20.70;68.90;;;;;;5056485;28;865;-69
2022/10/20 08:57:21;;;;;;;;;;;20.70;68.90;;;;;;5060117;28;1282;-69
2022/10/20 08:59:47;;;;;;;;;;;20.70;68.90;;;;;;5057826;28;894;-70
2022/10/20 09:02:13;;;;;;;;;;;20.70;68.90;;;;;;5057720;28;1314;-69
2022/10/20 09:04:44;;;;;;;;;;;20.70;68.90;;;;;;5057282;28;1971;-69
2022/10/20 09:07:33;;;;;;;;;;;20.70;68.90;;;;;;5060437;28;1262;-69
2022/10/20 09:10:21;;;;;;;;;;;20.70;69.00;;;;;;5056462;28;1123;-69
2022/10/20 09:12:47;;;;;;;;;;;20.70;69.00;;;;;;5055759;28;2169;-69
2022/10/20 09:15:13;;;;;;;;;;;20.70;69.00;;;;;;5060273;28;2134;-69
2022/10/20 09:17:39;;;;;;;;;;;20.70;69.00;;;;;;5060856;28;1381;-69
2022/10/20 09:20:04;;;;;;;;;;;20.70;69.10;;;;;;5060618;28;845;-69
2022/10/20 09:22:30;;;;;;;;;;;20.70;69.10;;;;;;5059293;28;868;-69
2022/10/20 09:24:56;;;;;;;;;;;20.70;69.10;;;;;;5061483;28;1957;-69
2022/10/20 09:27:21;;;;;;;;;;;20.70;69.00;;;;;;5063022;28;1293;-69
2022/10/20 09:29:46;;;;;;;;;;;20.60;69.00;;;;;;5059447;28;804;-69
2022/10/20 09:32:16;;;;;;;;;;;20.70;69.10;;;;;;5057737;28;1444;-69
2022/10/20 09:34:41;;;;;;;;;;;20.60;69.00;;;;;;5056174;28;806;-69
2022/10/20 09:37:07;;;;;;;;;;;20.60;69.00;;;;;;5068210;28;1300;-69
2022/10/20 09:39:38;;;;;;;;;;;20.60;69.10;;;;;;5058703;28;874;-69
2022/10/20 09:42:04;;;;;;;;;;;20.60;69.80;;;;;;5059504;28;911;-68
2022/10/20 09:44:31;;;;;;;;;;;20.60;69.10;;;;;;5057931;28;1906;-69
2022/10/20 09:46:56;;;;;;;;;;;20.70;69.20;;;;;;5060288;28;1442;-68
2022/10/20 09:49:27;;;;;;;;;;;20.70;69.20;;;;;;5060305;28;1030;-69
2022/10/20 09:51:52;;;;;;;;;;;20.60;69.10;;;;;;5057936;28;961;-68
2022/10/20 09:54:18;;;;;;;;;;;20.60;69.20;;;;;;5057375;28;860;-68
2022/10/20 09:56:45;;;;;;;;;;;20.60;69.20;;;;;;5061664;28;1220;-68
2022/10/20 09:59:24;;;;;;;;;;;20.60;69.20;;;;;;5061279;28;907;-68
2022/10/20 10:01:56;;;;;;;;;;;20.60;69.20;;;;;;5060922;28;828;-69
2022/10/20 10:04:29;;;;;;;;;;;20.60;69.20;;;;;;5057014;28;863;-69
2022/10/20 10:06:55;;;;;;;;;;;20.60;69.20;;;;;;5060555;28;1374;-69
2022/10/20 10:09:25;;;;;;;;;;;20.60;69.30;;;;;;5058879;28;800;-69
2022/10/20 10:12:13;;;;;;;;;;;20.60;69.30;;;;;;5065404;28;885;-69
2022/10/20 10:14:48;;;;;;;;;;;20.60;69.40;;;;;;5053752;28;1009;-69
2022/10/20 10:17:32;;;;;;;;;;;20.60;69.40;;;;;;5063333;28;1377;-69
2022/10/20 10:19:57;;;;;;;;;;;20.60;69.40;;;;;;5061340;28;867;-69
2022/10/20 10:22:23;;;;;;;;;;;20.60;69.40;;;;;;5056533;28;919;-69
2022/10/20 10:24:48;;;;;;;;;;;20.60;69.40;;;;;;5058287;28;1906;-69
2022/10/20 10:27:18;;;;;;;;;;;20.60;69.40;;;;;;5062342;28;1377;-69
2022/10/20 10:29:43;;;;;;;;;;;20.60;69.40;;;;;;5061745;28;835;-69
2022/10/20 10:32:13;;;;;;;;;;;20.60;69.50;;;;;;5061424;28;1374;-69
2022/10/20 10:34:44;;;;;;;;;;;20.60;69.50;;;;;;5059826;28;1002;-69
2022/10/20 10:37:10;;;;;;;;;;;20.60;69.50;;;;;;5058219;28;1278;-69
2022/10/20 10:39:36;;;;;;;;;;;20.60;69.50;;;;;;5059954;28;1069;-69
2022/10/20 10:42:24;;;;;;;;;;;20.60;69.50;;;;;;5060803;28;804;-69
2022/10/20 10:44:50;;;;;;;;;;;20.60;69.50;;;;;;5061145;28;1906;-68
2022/10/20 10:47:15;;;;;;;;;;;20.50;69.50;;;;;;5057105;28;1339;-68
2022/10/20 10:50:01;;;;;;;;;;;20.60;69.60;;;;;;5058954;28;979;-69
2022/10/20 10:52:26;;;;;;;;;;;20.50;69.50;;;;;;5046108;28;1388;-69
2022/10/20 10:54:52;;;;;;;;;;;20.50;69.50;;;;;;5059793;28;1029;-69
2022/10/20 10:57:30;;;;;;;;;;;20.50;69.50;;;;;;5058449;28;1254;-69
2022/10/20 10:59:55;;;;;;;;;;;20.60;69.60;;;;;;5055733;28;892;-69
2022/10/20 11:02:20;;;;;;;;;;;20.60;69.60;;;;;;5059682;28;841;-69
2022/10/20 11:04:59;;;;;;;;;;;20.50;69.60;;;;;;5057194;28;1898;-69
2022/10/20 11:07:44;;;;;;;;;;;20.50;69.60;;;;;;5062847;28;1254;-69
2022/10/20 11:10:14;;;;;;;;;;;20.50;69.60;;;;;;5058637;28;1549;-69
2022/10/20 11:12:39;;;;;;;;;;;20.50;69.60;;;;;;5057590;28;962;-69
2022/10/20 11:15:10;;;;;;;;;;;20.50;69.70;;;;;;5056943;28;853;-69
2022/10/20 11:17:36;;;;;;;;;;;20.50;69.70;;;;;;5058650;28;1626;-69
2022/10/20 11:20:07;;;;;;;;;;;20.50;69.70;;;;;;5058450;28;1448;-69
2022/10/20 11:22:58;;;;;;;;;;;20.50;69.70;;;;;;5058339;28;1013;-69
2022/10/20 11:25:27;;;;;;;;;;;20.50;69.70;;;;;;5029180;28;1951;-68
2022/10/20 11:27:53;;;;;;;;;;;20.50;69.70;;;;;;5058891;28;887;-69
2022/10/20 11:30:20;;;;;;;;;;;20.50;69.80;;;;;;5054718;28;1414;-69
2022/10/20 11:32:48;;;;;;;;;;;20.50;69.70;;;;;;5054136;28;1388;-69
2022/10/20 11:35:16;;;;;;;;;;;20.50;69.80;;;;;;5055821;28;831;-69
2022/10/20 11:37:44;;;;;;;;;;;20.50;69.80;;;;;;5057006;28;1387;-69
2022/10/20 11:40:10;;;;;;;;;;;20.50;69.80;;;;;;5062001;28;867;-69
2022/10/20 11:42:37;;;;;;;;;;;20.50;69.80;;;;;;5059339;28;990;-69
2022/10/20 11:45:04;;;;;;;;;;;20.50;69.80;;;;;;5056003;28;1906;-69
2022/10/20 11:47:31;;;;;;;;;;;20.50;69.80;;;;;;5056883;28;2193;-69
2022/10/20 11:49:57;;;;;;;;;;;20.50;69.80;;;;;;5056474;28;1925;-69
2022/10/20 11:52:32;;;;;;;;;;;20.50;69.80;;;;;;5057543;28;1300;-69
2022/10/20 11:55:07;;;;;;;;;;;20.50;69.80;;;;;;5058621;28;1487;-69
2022/10/20 11:57:35;;;;;;;;;;;20.50;69.90;;;;;;5056436;28;1412;-69
2022/10/20 12:00:19;;;;;;;;;;;20.50;69.80;;;;;;5059056;28;1894;-70
2022/10/20 12:02:47;;;;;;;;;;;20.50;69.90;;;;;;5060935;28;1334;-70
2022/10/20 12:05:16;;;;;;;;;;;20.50;69.90;;;;;;5055988;28;1902;-70
2022/10/20 12:07:41;;;;;;;;;;;20.50;69.90;;;;;;5057742;28;1359;-69
2022/10/20 12:10:25;;;;;;;;;;;20.50;69.50;;;;;;5058029;28;840;-68
2022/10/20 12:13:03;;;;;;;;;;;20.50;61.70;;;;;;5056293;28;990;-68
2022/10/20 12:15:29;;;;;;;;;;;20.40;60.60;;;;;;5060825;28;1346;-69
2022/10/20 12:18:04;;;;;;;;;;;20.40;59.90;;;;;;5057881;28;1351;-69
2022/10/20 12:20:30;;;;;;;;;;;20.40;59.10;;;;;;5053375;28;847;-69
2022/10/20 12:23:00;;;;;;;;;;;20.30;58.30;;;;;;5056710;28;863;-68
2022/10/20 12:25:26;;;;;;;;;;;20.30;57.90;;;;;;5057605;28;1956;-67
2022/10/20 12:28:10;;;;;;;;;;;20.30;58.00;;;;;;5060410;28;875;-70
2022/10/20 12:30:38;;;;;;;;;;;20.20;57.60;;;;;;5064576;28;1296;-67
2022/10/20 12:33:17;;;;;;;;;;;20.20;57.10;;;;;;5061304;28;1342;-67
2022/10/20 12:35:57;;;;;;;;;;;20.20;57.10;;;;;;5059644;28;1270;-67
2022/10/20 12:38:23;;;;;;;;;;;20.20;56.70;;;;;;5059603;28;1311;-67
2022/10/20 12:40:54;;;;;;;;;;;20.20;56.20;;;;;;5061675;28;823;-67
2022/10/20 12:43:22;;;;;;;;;;;20.10;55.80;;;;;;5060322;28;850;-67
2022/10/20 12:45:48;;;;;;;;;;;20.10;55.50;;;;;;5058660;28;1906;-67
2022/10/20 12:48:18;;;;;;;;;;;20.10;55.10;;;;;;5059168;28;991;-67
2022/10/20 12:50:44;;;;;;;;;;;20.10;55.40;;;;;;5059232;28;950;-67
2022/10/20 12:53:10;;;;;;;;;;;20.00;55.10;;;;;;5061508;28;907;-67
2022/10/20 12:55:36;;;;;;;;;;;20.00;54.30;;;;;;5055179;28;1350;-67
2022/10/20 12:58:09;;;;;;;;;;;20.00;54.90;;;;;;5060008;28;893;-67
2022/10/20 13:00:34;;;;;;;;;;;20.00;55.30;;;;;;5062776;28;1014;-67
2022/10/20 13:03:00;;;;;;;;;;;20.00;55.10;;;;;;5061388;28;974;-67
2022/10/20 13:05:27;;;;;;;;;;;20.00;54.90;;;;;;5057557;28;1902;-67
2022/10/20 13:07:52;;;;;;;;;;;20.00;54.70;;;;;;5060462;28;1002;-67
2022/10/20 13:10:28;;;;;;;;;;;19.90;54.60;;;;;;5058814;28;886;-68
2022/10/20 13:13:00;;;;;;;;;;;19.90;54.50;;;;;;5059540;28;1892;-67
2022/10/20 13:15:25;;;;;;;;;;;19.90;53.40;;;;;;5061973;28;991;-67
2022/10/20 13:17:52;;;;;;;;;;;19.90;54.00;;;;;;5053705;28;1384;-67
2022/10/20 13:20:20;;;;;;;;;;;19.90;54.10;;;;;;5062163;28;1397;-67
2022/10/20 13:22:46;;;;;;;;;;;19.90;54.20;;;;;;5061276;28;1414;-67
2022/10/20 13:25:17;;;;;;;;;;;19.80;54.50;;;;;;5058855;28;1894;-66
2022/10/20 13:27:42;;;;;;;;;;;19.90;54.40;;;;;;5056102;28;1322;-67
2022/10/20 13:30:08;;;;;;;;;;;19.90;54.70;;;;;;5059049;28;1791;-69
2022/10/20 13:32:59;;;;;;;;;;;19.80;54.30;;;;;;5056994;28;1402;-67
2022/10/20 13:36:00;;;;;;;;;;;19.80;54.10;;;;;;5057929;28;1164;-68
2022/10/20 13:38:44;;;;;;;;;;;19.80;54.00;;;;;;4984205;28;1516;-68
2022/10/20 13:41:15;;;;;;;;;;;19.80;54.10;;;;;;5062116;28;1151;-67
2022/10/20 13:43:46;;;;;;;;;;;19.80;53.50;;;;;;5060472;28;766;-68
2022/10/20 13:46:24;;;;;;;;;;;19.80;53.70;;;;;;5059873;28;1906;-67
2022/10/20 13:49:09;;;;;;;;;;;19.80;52.90;;;;;;5058563;28;1573;-67
2022/10/20 13:51:42;;;;;;;;;;;19.70;52.90;;;;;;5059182;28;1429;-68
2022/10/20 13:54:12;;;;;;;;;;;19.80;53.40;;;;;;5058330;28;885;-67
2022/10/20 13:56:39;;;;;;;;;;;19.80;53.20;;;;;;5060254;28;1241;-67
2022/10/20 13:59:17;;;;;;;;;;;19.70;51.90;;;;;;5057623;28;832;-69
2022/10/20 14:01:47;;;;;;;;;;;19.70;51.40;;;;;;5064008;28;983;-68
2022/10/20 14:04:38;;;;;;;;;;;19.70;52.30;;;;;;5060990;28;1602;-69
2022/10/20 14:07:07;;;;;;;;;;;19.70;53.00;;;;;;5057818;28;1264;-68
2022/10/20 14:09:32;;;;;;;;;;;19.70;53.60;;;;;;5060034;28;844;-69
2022/10/20 14:12:02;;;;;;;;;;;19.70;54.20;;;;;;5061348;28;954;-69
2022/10/20 14:14:27;;;;;;;;;;;19.80;55.00;;;;;;5053900;28;871;-68
2022/10/20 14:16:55;;;;;;;;;;;19.80;55.30;;;;;;5061869;28;1253;-69
2022/10/20 14:19:22;;;;;;;;;;;19.80;55.80;;;;;;5057414;28;1351;-69
2022/10/20 14:21:49;;;;;;;;;;;19.90;56.20;;;;;;5061005;28;828;-68
2022/10/20 14:24:21;;;;;;;;;;;19.90;56.70;;;;;;5059823;28;918;-69
2022/10/20 14:26:47;;;;;;;;;;;19.90;56.90;;;;;;5058436;28;1902;-71
2022/10/20 14:29:13;;;;;;;;;;;19.90;57.20;;;;;;5043042;28;1357;-74
2022/10/20 14:31:38;;;;;;;;;;;19.90;57.40;;;;;;5059811;28;1456;-72
2022/10/20 14:34:04;;;;;;;;;;;19.90;57.50;;;;;;5058257;28;828;-71
2022/10/20 14:36:29;;;;;;;;;;;19.90;57.70;;;;;;5055984;28;1286;-70
2022/10/20 14:38:56;;;;;;;;;;;19.90;57.80;;;;;;5056391;28;1006;-72